Time;durP1;ratioP1;P1;durP2;ratioP2;P2;SDS_P1;SDS_P2;PMS_P1;PMS_P2;Temp;Humidity;BMP_temperature;BMP_pressure;BME280_temperature;BME280_humidity;BME280_pressure;Samples;Min_cycle;Max_cycle;Signal;HPM_P1;HPM_P2
2023/02/28 00:02:25;;;;;;;;;;;;;;;24.76;38.92;94285.84;4827298;29;7051;-66
2023/02/28 00:05:18;;;;;;;;;;;;;;;24.75;39.22;94290.59;4823955;29;9025;-67
2023/02/28 00:07:44;;;;;;;;;;;;;;;24.73;39.72;94295.81;4842128;29;7982;-66
2023/02/28 00:10:57;;;;;;;;;;;;;;;24.76;39.00;94299.59;4841740;29;7328;-66
2023/02/28 00:13:42;;;;;;;;;;;;;;;24.76;39.53;94302.34;4874024;29;7284;-67
2023/02/28 00:16:17;;;;;;;;;;;;;;;24.75;39.63;94295.34;4885444;29;8651;-66
2023/02/28 00:19:02;;;;;;;;;;;;;;;24.75;38.73;94303.63;4882390;29;7060;-66
2023/02/28 00:22:23;;;;;;;;;;;;;;;24.76;39.60;94302.34;4900136;29;7455;-66
2023/02/28 00:25:17;;;;;;;;;;;;;;;24.76;39.40;94303.09;4942190;28;8392;-63
2023/02/28 00:27:43;;;;;;;;;;;;;;;24.74;39.15;94297.31;4945305;28;7060;-63
2023/02/28 00:30:29;;;;;;;;;;;;;;;24.75;39.12;94295.34;4994337;28;8975;-63
2023/02/28 00:32:59;;;;;;;;;;;;;;;24.75;38.80;94290.59;4968556;28;7033;-63
2023/02/28 00:36:15;;;;;;;;;;;;;;;24.76;38.97;94294.09;4975197;28;7184;-63
2023/02/28 00:38:55;;;;;;;;;;;;;;;24.74;38.56;94294.56;4949878;28;7097;-62
2023/02/28 00:41:49;;;;;;;;;;;;;;;24.76;38.58;94291.34;4972646;28;7046;-63
2023/02/28 00:44:15;;;;;;;;;;;;;;;24.75;38.83;94296.09;4972000;28;7244;-63
2023/02/28 00:46:45;;;;;;;;;;;;;;;24.75;38.87;94298.84;4942166;28;8890;-63
2023/02/28 00:49:16;;;;;;;;;;;;;;;24.75;38.80;94289.84;4969240;28;7119;-63
2023/02/28 00:51:58;;;;;;;;;;;;;;;24.73;39.04;94293.06;4947688;28;9110;-63
2023/02/28 00:54:41;;;;;;;;;;;;;;;24.76;38.94;94305.09;4963124;28;9707;-63
2023/02/28 00:57:08;;;;;;;;;;;;;;;24.76;38.91;94302.34;4965384;28;9217;-63
2023/02/28 00:59:38;;;;;;;;;;;;;;;24.75;39.27;94298.09;4943944;28;9510;-63
2023/02/28 01:02:04;;;;;;;;;;;;;;;24.76;39.38;94302.34;4964350;28;7183;-62
2023/02/28 01:04:32;;;;;;;;;;;;;;;24.75;38.98;94296.09;4955754;28;7054;-62
2023/02/28 01:07:01;;;;;;;;;;;;;;;24.76;39.31;94299.59;4969672;28;9478;-63
2023/02/28 01:09:56;;;;;;;;;;;;;;;24.76;38.72;94294.09;4950548;28;9073;-63
2023/02/28 01:12:30;;;;;;;;;;;;;;;24.74;38.87;94297.31;4918601;29;7023;-63
2023/02/28 01:14:59;;;;;;;;;;;;;;;24.73;39.14;94293.06;4931332;29;7303;-63
2023/02/28 01:17:27;;;;;;;;;;;;;;;24.73;38.52;94291.06;4915746;29;8597;-63
2023/02/28 01:19:55;;;;;;;;;;;;;;;24.75;39.23;94301.59;4931123;29;9129;-63
2023/02/28 01:22:22;;;;;;;;;;;;;;;24.75;39.39;94292.59;4930956;29;7041;-63
2023/02/28 01:24:48;;;;;;;;;;;;;;;24.73;39.19;94293.81;4932792;29;8987;-63
2023/02/28 01:27:18;;;;;;;;;;;;;;;24.75;39.44;94287.09;4927824;29;9150;-63
2023/02/28 01:29:44;;;;;;;;;;;;;;;24.75;38.46;94287.09;4915029;29;7084;-63
2023/02/28 01:32:12;;;;;;;;;;;;;;;24.73;38.66;94293.81;4930307;29;9292;-63
2023/02/28 01:34:40;;;;;;;;;;;;;;;24.75;38.59;94295.34;4915972;29;7326;-63
2023/02/28 01:37:06;;;;;;;;;;;;;;;24.71;38.82;94287.31;4914798;29;7453;-62
2023/02/28 01:39:32;;;;;;;;;;;;;;;24.76;38.95;94296.84;4914837;29;7078;-62
2023/02/28 01:41:57;;;;;;;;;;;;;;;24.76;38.95;94294.09;4914579;29;7344;-62
2023/02/28 01:45:01;;;;;;;;;;;;;;;24.76;39.30;94300.34;4925312;29;8977;-62
2023/02/28 01:47:36;;;;;;;;;;;;;;;24.75;39.33;94301.59;4914323;29;7651;-62
2023/02/28 01:50:20;;;;;;;;;;;;;;;24.73;38.79;94288.31;4973176;28;9000;-63
2023/02/28 01:52:49;;;;;;;;;;;;;;;24.73;38.91;94282.81;4995164;28;7058;-63
2023/02/28 01:55:28;;;;;;;;;;;;;;;24.76;39.19;94291.34;4964205;28;7019;-63
2023/02/28 01:58:25;;;;;;;;;;;;;;;24.75;38.76;94290.59;4973887;28;7233;-63
2023/02/28 02:01:04;;;;;;;;;;;;;;;24.76;39.10;94286.59;4913943;29;8972;-63
2023/02/28 02:03:40;;;;;;;;;;;;;;;24.71;38.64;94285.34;4930585;29;7397;-67
2023/02/28 02:06:17;;;;;;;;;;;;;;;24.73;38.47;94288.31;4905463;29;7049;-67
2023/02/28 02:08:44;;;;;;;;;;;;;;;24.71;39.26;94285.34;4892122;29;7045;-67
2023/02/28 02:11:17;;;;;;;;;;;;;;;24.73;39.53;94282.06;4896992;29;8213;-67
2023/02/28 02:14:06;;;;;;;;;;;;;;;24.73;38.88;94282.81;4923480;29;9108;-67
2023/02/28 02:16:51;;;;;;;;;;;;;;;24.73;39.04;94282.06;4922304;29;7123;-67
2023/02/28 02:19:45;;;;;;;;;;;;;;;24.73;38.66;94273.09;4926602;29;9339;-67
2023/02/28 02:22:29;;;;;;;;;;;;;;;24.73;39.21;94271.81;4925302;29;7091;-67
2023/02/28 02:25:16;;;;;;;;;;;;;;;24.72;38.68;94269.59;4911517;29;7271;-67
2023/02/28 02:28:00;;;;;;;;;;;;;;;24.71;39.17;94262.56;4923686;29;8356;-67
2023/02/28 02:30:42;;;;;;;;;;;;;;;24.72;38.53;94255.84;4928152;29;9076;-67
2023/02/28 02:33:29;;;;;;;;;;;;;;;24.71;39.24;94263.31;4921063;29;7300;-67
2023/02/28 02:36:12;;;;;;;;;;;;;;;24.73;39.26;94257.31;4926134;29;7044;-67
2023/02/28 02:38:50;;;;;;;;;;;;;;;24.73;39.24;94264.84;4972369;28;7314;-67
2023/02/28 02:41:54;;;;;;;;;;;;;;;24.73;38.71;94256.59;4970763;28;7026;-67
2023/02/28 02:44:33;;;;;;;;;;;;;;;24.74;38.75;94261.56;4970358;28;9092;-67
2023/02/28 02:47:12;;;;;;;;;;;;;;;24.75;38.84;94262.34;4961965;28;9122;-67
2023/02/28 02:49:46;;;;;;;;;;;;;;;24.73;39.48;94252.56;4966948;28;7061;-67
2023/02/28 02:52:18;;;;;;;;;;;;;;;24.73;38.45;94262.81;4971822;28;8952;-67
2023/02/28 02:54:52;;;;;;;;;;;;;;;24.73;39.21;94260.06;4982880;28;7034;-67
2023/02/28 02:57:40;;;;;;;;;;;;;;;24.73;39.30;94259.34;4974387;28;7435;-67
2023/02/28 03:00:19;;;;;;;;;;;;;;;24.73;38.76;94260.06;4989504;28;9112;-67
2023/02/28 03:03:11;;;;;;;;;;;;;;;24.73;38.48;94266.31;4968141;28;7371;-68
2023/02/28 03:05:51;;;;;;;;;;;;;;;24.74;38.88;94261.56;4996602;28;9001;-67
2023/02/28 03:08:48;;;;;;;;;;;;;;;24.74;38.55;94258.81;4978143;28;8802;-67
2023/02/28 03:11:21;;;;;;;;;;;;;;;24.73;39.02;94253.84;4990525;28;7044;-67
2023/02/28 03:14:45;;;;;;;;;;;;;;;24.72;39.46;94253.09;4970925;28;7150;-67
2023/02/28 03:17:23;;;;;;;;;;;;;;;24.73;38.74;94256.59;4986988;28;7250;-67
2023/02/28 03:20:27;;;;;;;;;;;;;;;24.73;39.28;94256.59;4994534;28;7028;-67
2023/02/28 03:23:01;;;;;;;;;;;;;;;24.70;38.94;94259.09;4983737;28;8782;-67
2023/02/28 03:26:01;;;;;;;;;;;;;;;24.73;38.58;94264.84;4985809;28;7262;-67
2023/02/28 03:28:47;;;;;;;;;;;;;;;24.71;39.01;94265.31;4966694;28;8975;-67
2023/02/28 03:31:49;;;;;;;;;;;;;;;24.73;38.31;94262.81;4978010;28;9067;-67
2023/02/28 03:38:14;;;;;;;;;;;;;;;24.72;39.02;94266.84;4993939;28;9226;-66
2023/02/28 03:41:09;;;;;;;;;;;;;;;24.69;38.70;94256.84;4994348;28;9397;-67
2023/02/28 03:44:07;;;;;;;;;;;;;;;24.71;39.03;94259.81;4978188;28;8245;-67
2023/02/28 03:46:52;;;;;;;;;;;;;;;24.70;38.44;94250.09;4977308;28;10348;-67
2023/02/28 03:49:31;;;;;;;;;;;;;;;24.71;39.00;94252.31;4972926;28;7060;-67
2023/02/28 03:52:05;;;;;;;;;;;;;;;24.71;38.72;94257.81;4975641;28;9071;-67
2023/02/28 03:54:39;;;;;;;;;;;;;;;24.70;39.18;94259.09;4971906;28;7065;-67
2023/02/28 03:57:34;;;;;;;;;;;;;;;24.70;38.76;94261.84;4972278;28;7280;-67
2023/02/28 04:00:08;;;;;;;;;;;;;;;24.71;38.65;94265.31;4964771;28;8220;-67
2023/02/28 04:02:34;;;;;;;;;;;;;;;24.71;38.37;94271.59;4986842;28;7270;-67
2023/02/28 04:05:00;;;;;;;;;;;;;;;24.71;38.50;94268.84;4972011;28;7855;-67
2023/02/28 04:07:32;;;;;;;;;;;;;;;24.71;38.38;94271.59;4973704;28;7306;-67
2023/02/28 04:10:18;;;;;;;;;;;;;;;24.73;38.84;94270.34;4975329;28;8818;-68
2023/02/28 04:12:57;;;;;;;;;;;;;;;24.71;38.75;94270.81;4976825;28;7285;-67
2023/02/28 04:15:36;;;;;;;;;;;;;;;24.69;38.45;94274.09;4956904;28;9045;-68
2023/02/28 04:18:14;;;;;;;;;;;;;;;24.71;39.08;94273.56;4971764;28;9126;-67
2023/02/28 04:20:42;;;;;;;;;;;;;;;24.71;38.56;94279.84;4997657;28;7259;-67
2023/02/28 04:23:08;;;;;;;;;;;;;;;24.70;38.81;94270.09;4986248;28;9088;-67
2023/02/28 04:26:32;;;;;;;;;;;;;;;24.73;39.33;94286.84;4984373;28;7190;-67
2023/02/28 04:29:10;;;;;;;;;;;;;;;24.70;38.71;94283.84;4960044;28;9334;-67
2023/02/28 04:31:36;;;;;;;;;;;;;;;24.67;38.80;94282.09;4970934;28;8745;-67
2023/02/28 04:34:29;;;;;;;;;;;;;;;24.70;38.95;94292.09;4949773;28;9086;-67
2023/02/28 04:37:04;;;;;;;;;;;;;;;24.71;38.62;94290.06;4962317;28;7034;-67
2023/02/28 04:39:35;;;;;;;;;;;;;;;24.71;39.09;94288.09;4954683;28;9450;-67
2023/02/28 04:42:01;;;;;;;;;;;;;;;24.71;38.64;94285.34;4972394;28;7462;-67
2023/02/28 04:48:16;;;;;;;;;;;;;;;24.70;39.25;94283.09;4965159;28;9023;-67
2023/02/28 04:51:03;;;;;;;;;;;;;;;24.70;38.39;94283.09;4973427;28;7049;-67
2023/02/28 04:53:49;;;;;;;;;;;;;;;24.70;39.38;94291.34;4950423;28;9135;-67
2023/02/28 04:56:50;;;;;;;;;;;;;;;24.69;38.49;94290.59;4947891;28;6938;-67
2023/02/28 04:59:26;;;;;;;;;;;;;;;24.70;39.09;94294.84;4959887;28;8908;-67
2023/02/28 05:02:06;;;;;;;;;;;;;;;24.71;39.18;94306.59;4953753;28;9448;-67
2023/02/28 05:04:45;;;;;;;;;;;;;;;24.70;38.91;94311.34;4954015;28;7069;-67
2023/02/28 05:07:16;;;;;;;;;;;;;;;24.69;38.51;94306.34;4953919;28;7781;-67
2023/02/28 05:09:52;;;;;;;;;;;;;;;24.70;38.60;94302.34;4933530;28;7267;-67
2023/02/28 05:12:19;;;;;;;;;;;;;;;24.68;38.80;94308.34;4926022;28;9006;-67
2023/02/28 05:14:49;;;;;;;;;;;;;;;24.70;39.27;94305.09;4950451;28;7336;-67
2023/02/28 05:18:07;;;;;;;;;;;;;;;24.70;39.02;94314.09;4951074;28;9051;-67
2023/02/28 05:20:33;;;;;;;;;;;;;;;24.70;39.29;94316.84;4898636;29;6977;-67
2023/02/28 05:23:34;;;;;;;;;;;;;;;24.71;38.60;94312.84;4914370;29;7034;-67
2023/02/28 05:26:00;;;;;;;;;;;;;;;24.67;38.60;94306.84;4879842;29;9089;-67
2023/02/28 05:28:26;;;;;;;;;;;;;;;24.71;39.24;94314.84;4889090;29;9136;-67
2023/02/28 05:30:53;;;;;;;;;;;;;;;24.70;38.55;94322.34;4892645;29;7387;-67
2023/02/28 05:33:19;;;;;;;;;;;;;;;24.69;38.53;94320.84;4870073;29;7257;-65
2023/02/28 05:35:58;;;;;;;;;;;;;;;24.73;38.99;94319.84;4879359;29;9005;-65
2023/02/28 05:38:34;;;;;;;;;;;;;;;24.70;39.08;94319.59;4894099;29;7188;-65
2023/02/28 05:41:32;;;;;;;;;;;;;;;24.73;38.15;94314.34;4888296;29;7501;-65
2023/02/28 05:44:18;;;;;;;;;;;;;;;24.73;38.40;94314.34;4890052;29;7305;-65
2023/02/28 05:46:58;;;;;;;;;;;;;;;24.71;38.46;94318.34;4895199;29;8622;-65
2023/02/28 05:49:26;;;;;;;;;;;;;;;24.72;38.52;94319.09;4891325;29;9275;-65
2023/02/28 05:52:02;;;;;;;;;;;;;;;24.73;39.01;94315.81;4865254;29;7513;-67
2023/02/28 05:54:29;;;;;;;;;;;;;;;24.75;38.27;94325.63;4883389;29;7022;-67
2023/02/28 05:57:15;;;;;;;;;;;;;;;24.75;38.60;94325.63;4906659;29;8761;-67
2023/02/28 05:59:41;;;;;;;;;;;;;;;24.73;38.64;94315.81;4918265;29;9335;-67
2023/02/28 06:02:19;;;;;;;;;;;;;;;24.75;38.80;94322.88;4928678;29;7251;-67
2023/02/28 06:04:46;;;;;;;;;;;;;;;24.74;38.57;94322.09;4944792;28;7194;-67
2023/02/28 06:07:17;;;;;;;;;;;;;;;24.79;38.98;94318.59;4916543;29;9332;-67
2023/02/28 06:09:53;;;;;;;;;;;;;;;24.86;38.79;94326.28;4916915;29;7392;-67
2023/02/28 06:12:31;;;;;;;;;;;;;;;24.87;38.51;94332.56;4941510;28;7080;-67
2023/02/28 06:15:30;;;;;;;;;;;;;;;24.83;37.67;94337.56;4943577;28;7246;-65
2023/02/28 06:18:05;;;;;;;;;;;;;;;24.82;37.88;94339.56;4930751;29;7089;-67
2023/02/28 06:20:31;;;;;;;;;;;;;;;24.85;38.44;94341.31;4944236;28;9064;-67
2023/02/28 06:23:01;;;;;;;;;;;;;;;24.96;37.96;94349.53;4933697;28;8693;-67
2023/02/28 06:25:29;;;;;;;;;;;;;;;24.91;36.69;94341.28;4949367;28;7080;-67
2023/02/28 06:27:57;;;;;;;;;;;;;;;24.86;36.14;94345.56;4933172;29;7057;-67
2023/02/28 06:30:26;;;;;;;;;;;;;;;24.92;36.95;94345.53;4949548;28;9092;-67
2023/02/28 06:33:23;;;;;;;;;;;;;;;24.96;36.10;94355.03;4954638;28;8683;-67
2023/02/28 06:35:56;;;;;;;;;;;;;;;24.97;36.70;94353.03;4902127;29;9047;-67
2023/02/28 06:38:22;;;;;;;;;;;;;;;25.00;36.19;94352.00;4913956;29;9006;-67
2023/02/28 06:41:01;;;;;;;;;;;;;;;24.97;36.43;94361.28;4908119;29;9084;-67
2023/02/28 06:43:35;;;;;;;;;;;;;;;24.94;36.51;94365.03;4909927;29;9126;-66
2023/02/28 06:46:15;;;;;;;;;;;;;;;24.87;35.96;94368.31;4911194;29;7058;-67
2023/02/28 06:49:00;;;;;;;;;;;;;;;24.83;36.01;94371.34;4901127;29;9729;-65
2023/02/28 06:51:55;;;;;;;;;;;;;;;24.81;36.20;94375.84;4902384;29;7140;-65
2023/02/28 06:54:59;;;;;;;;;;;;;;;24.79;36.79;94378.34;4893226;29;9007;-65
2023/02/28 06:57:37;;;;;;;;;;;;;;;24.76;36.58;94380.09;4893352;29;7263;-65
2023/02/28 07:00:16;;;;;;;;;;;;;;;24.73;36.66;94379.09;4924515;29;7237;-64
2023/02/28 07:02:44;;;;;;;;;;;;;;;24.73;36.30;94381.84;4891933;29;7278;-65
2023/02/28 07:05:34;;;;;;;;;;;;;;;24.71;36.85;94386.34;4914777;29;7302;-65
2023/02/28 07:08:36;;;;;;;;;;;;;;;24.69;36.59;94384.09;4899050;29;6985;-65
2023/02/28 07:11:03;;;;;;;;;;;;;;;24.68;36.22;94379.13;4911176;29;9057;-65
2023/02/28 07:13:29;;;;;;;;;;;;;;;24.68;37.31;94382.59;4936897;29;9103;-65
2023/02/28 07:16:10;;;;;;;;;;;;;;;24.67;37.18;94378.38;4941845;28;9447;-65
2023/02/28 07:18:38;;;;;;;;;;;;;;;24.69;36.51;94388.84;4926999;29;7278;-65
2023/02/28 07:21:15;;;;;;;;;;;;;;;24.70;36.46;94393.09;4916180;29;9075;-65
2023/02/28 07:23:41;;;;;;;;;;;;;;;24.69;36.80;94388.84;4942692;28;7332;-64
2023/02/28 07:26:20;;;;;;;;;;;;;;;24.69;37.00;94384.09;4928125;29;9425;-65
2023/02/28 07:29:03;;;;;;;;;;;;;;;24.69;37.09;94383.34;4929804;28;7038;-65
2023/02/28 07:31:33;;;;;;;;;;;;;;;24.66;37.49;94381.63;4924591;28;9072;-65
2023/02/28 07:34:50;;;;;;;;;;;;;;;24.72;37.13;94387.84;4934644;29;9170;-65
2023/02/28 07:37:36;;;;;;;;;;;;;;;24.76;37.20;94384.84;4937666;28;9030;-66
2023/02/28 07:43:44;;;;;;;;;;;;;;;24.75;37.81;94395.09;4896716;29;7049;-66
2023/02/28 07:46:16;;;;;;;;;;;;;;;24.71;38.18;94389.84;4892865;29;9589;-66
2023/02/28 07:49:02;;;;;;;;;;;;;;;24.70;38.35;94393.88;4907624;29;7411;-66
2023/02/28 07:51:31;;;;;;;;;;;;;;;24.69;37.79;94392.34;4901201;29;7042;-66
2023/02/28 07:53:57;;;;;;;;;;;;;;;24.70;37.46;94396.63;4896537;29;8925;-66
2023/02/28 07:56:25;;;;;;;;;;;;;;;24.68;38.02;94396.34;4899732;29;8918;-66
2023/02/28 07:59:01;;;;;;;;;;;;;;;24.70;38.28;94393.09;4897094;29;7022;-66
2023/02/28 08:01:27;;;;;;;;;;;;;;;24.66;38.59;94387.84;4911312;29;7279;-66
2023/02/28 08:04:02;;;;;;;;;;;;;;;24.68;38.53;94390.13;4891694;29;8949;-66
2023/02/28 08:06:28;;;;;;;;;;;;;;;24.68;38.61;94395.63;4894590;29;7087;-66
2023/02/28 08:08:55;;;;;;;;;;;;;;;24.67;38.03;94400.38;4899739;29;8978;-66
2023/02/28 08:11:22;;;;;;;;;;;;;;;24.66;38.81;94393.34;4905062;29;7208;-67
2023/02/28 08:13:50;;;;;;;;;;;;;;;24.68;38.46;94396.34;4905581;29;7302;-66
2023/02/28 08:16:21;;;;;;;;;;;;;;;24.67;38.61;94391.34;4906631;29;7214;-66
2023/02/28 08:18:52;;;;;;;;;;;;;;;24.67;38.62;94405.09;4894785;29;7624;-66
2023/02/28 08:21:30;;;;;;;;;;;;;;;24.67;38.42;94400.38;4951814;28;7141;-66
2023/02/28 08:23:58;;;;;;;;;;;;;;;24.66;38.75;94398.84;4971958;28;7039;-66
2023/02/28 08:26:24;;;;;;;;;;;;;;;24.65;38.90;94405.63;4973246;28;7225;-66
2023/02/28 08:29:16;;;;;;;;;;;;;;;24.66;38.36;94398.13;4970644;28;7225;-66
2023/02/28 08:31:43;;;;;;;;;;;;;;;24.65;39.19;94405.63;4972062;28;7529;-66
2023/02/28 08:34:12;;;;;;;;;;;;;;;24.66;38.95;94403.63;4971970;28;7500;-66
2023/02/28 08:36:39;;;;;;;;;;;;;;;24.66;39.02;94409.84;4963158;28;7566;-66
2023/02/28 08:39:09;;;;;;;;;;;;;;;24.64;38.95;94395.84;4949073;28;9050;-66
2023/02/28 08:41:37;;;;;;;;;;;;;;;24.66;39.17;94401.59;4959240;28;7317;-66
2023/02/28 08:44:06;;;;;;;;;;;;;;;24.68;38.21;94409.38;4948638;28;7476;-66
2023/02/28 08:46:36;;;;;;;;;;;;;;;24.67;38.83;94408.63;4952191;28;9165;-66
2023/02/28 08:49:02;;;;;;;;;;;;;;;24.67;38.39;94408.63;4988380;28;7208;-67
2023/02/28 08:51:41;;;;;;;;;;;;;;;24.67;38.72;94411.38;4972297;28;7038;-66
2023/02/28 08:54:20;;;;;;;;;;;;;;;24.66;38.98;94411.88;4959172;28;9071;-66
2023/02/28 08:56:56;;;;;;;;;;;;;;;24.67;38.82;94416.88;4963732;28;7049;-66
2023/02/28 08:59:28;;;;;;;;;;;;;;;24.65;38.47;94402.88;4970104;28;7059;-66
2023/02/28 09:01:55;;;;;;;;;;;;;;;24.64;38.64;94401.38;4962812;28;7021;-66
2023/02/28 09:04:26;;;;;;;;;;;;;;;24.66;38.80;94412.59;4954637;28;8779;-66
2023/02/28 09:06:54;;;;;;;;;;;;;;;24.67;38.99;94410.59;4974213;28;7046;-67
2023/02/28 09:09:23;;;;;;;;;;;;;;;24.70;38.61;94415.13;4961183;28;9621;-67
2023/02/28 09:11:55;;;;;;;;;;;;;;;24.71;39.17;94408.34;4959460;28;6957;-66
2023/02/28 09:14:21;;;;;;;;;;;;;;;24.68;38.87;94407.34;4971481;28;7367;-66
2023/02/28 09:16:47;;;;;;;;;;;;;;;24.70;39.11;94407.63;4967137;28;8994;-66
2023/02/28 09:19:40;;;;;;;;;;;;;;;24.71;39.15;94405.59;4973500;28;9392;-66
2023/02/28 09:22:07;;;;;;;;;;;;;;;24.70;39.10;94407.63;4992611;28;9089;-66
2023/02/28 09:24:36;;;;;;;;;;;;;;;24.71;38.89;94413.84;4980013;28;7262;-66
2023/02/28 09:27:02;;;;;;;;;;;;;;;24.71;38.71;94419.34;4960290;28;7351;-66
2023/02/28 09:29:28;;;;;;;;;;;;;;;24.70;38.68;94421.38;4984130;28;9163;-66
2023/02/28 09:31:58;;;;;;;;;;;;;;;24.70;39.02;94429.63;4989163;28;7530;-66
2023/02/28 09:34:26;;;;;;;;;;;;;;;24.71;38.90;94430.34;4994447;28;7046;-66
2023/02/28 09:36:54;;;;;;;;;;;;;;;24.70;39.16;94432.38;4972954;28;7271;-66
2023/02/28 09:39:51;;;;;;;;;;;;;;;24.69;38.98;94427.34;4972026;28;8335;-66
2023/02/28 09:42:33;;;;;;;;;;;;;;;24.69;38.59;94430.84;4913616;29;7294;-66
2023/02/28 09:45:07;;;;;;;;;;;;;;;24.68;38.70;94432.09;4924507;29;7237;-66
2023/02/28 09:47:47;;;;;;;;;;;;;;;24.69;38.46;94443.84;4929878;29;7225;-66
2023/02/28 09:50:26;;;;;;;;;;;;;;;24.70;38.89;94448.88;4925342;29;7826;-66
2023/02/28 09:52:54;;;;;;;;;;;;;;;24.70;39.66;94448.88;4909521;29;8205;-66
2023/02/28 09:55:47;;;;;;;;;;;;;;;24.71;38.28;94450.34;4909830;29;7052;-67
2023/02/28 09:58:46;;;;;;;;;;;;;;;24.73;38.85;94454.63;4909428;29;9259;-67
2023/02/28 10:01:38;;;;;;;;;;;;;;;24.75;39.39;94457.63;4919352;29;9244;-67
2023/02/28 10:04:40;;;;;;;;;;;;;;;24.73;39.21;94456.09;4910455;29;8751;-66
2023/02/28 10:07:22;;;;;;;;;;;;;;;24.73;39.01;94456.09;4904992;29;7256;-66
2023/02/28 10:09:54;;;;;;;;;;;;;;;24.73;38.93;94451.88;4921729;29;8231;-66
2023/02/28 10:12:21;;;;;;;;;;;;;;;24.73;38.75;94462.88;4913874;29;7283;-67
2023/02/28 10:14:54;;;;;;;;;;;;;;;24.73;39.37;94463.59;4907674;29;7379;-66
2023/02/28 10:17:42;;;;;;;;;;;;;;;24.73;39.36;94462.88;4915795;29;6963;-67
2023/02/28 10:20:19;;;;;;;;;;;;;;;24.73;39.38;94464.34;4961919;28;7041;-67
2023/02/28 10:23:07;;;;;;;;;;;;;;;24.74;38.58;94476.09;4996971;28;7835;-66
2023/02/28 10:25:36;;;;;;;;;;;;;;;24.73;38.81;94463.59;4963682;28;7039;-67
2023/02/28 10:28:11;;;;;;;;;;;;;;;24.71;38.91;94449.59;4972442;28;7374;-66
2023/02/28 10:30:52;;;;;;;;;;;;;;;24.75;39.32;94460.41;4960592;28;8260;-67
2023/02/28 10:33:37;;;;;;;;;;;;;;;24.75;39.46;94460.41;4979218;28;9358;-66
2023/02/28 10:36:23;;;;;;;;;;;;;;;24.75;39.12;94463.88;4957333;28;7037;-66
2023/02/28 10:39:38;;;;;;;;;;;;;;;24.73;38.60;94464.34;4986760;28;9167;-66
2023/02/28 10:42:25;;;;;;;;;;;;;;;24.75;39.32;94474.16;4968825;28;7479;-66
2023/02/28 10:45:16;;;;;;;;;;;;;;;24.73;38.73;94472.59;4976727;28;9039;-66
2023/02/28 10:47:57;;;;;;;;;;;;;;;24.71;39.34;94460.59;4973047;28;7052;-66
2023/02/28 10:50:33;;;;;;;;;;;;;;;24.71;38.77;94461.34;4962991;28;7026;-66
2023/02/28 10:53:21;;;;;;;;;;;;;;;24.73;39.07;94462.88;4969580;28;6855;-66
2023/02/28 10:56:09;;;;;;;;;;;;;;;24.75;39.27;94474.88;4971899;28;7331;-66
2023/02/28 10:58:53;;;;;;;;;;;;;;;24.73;38.63;94472.59;4996459;28;9414;-67
2023/02/28 11:01:39;;;;;;;;;;;;;;;24.75;38.76;94477.63;4990350;28;7023;-66
2023/02/28 11:04:32;;;;;;;;;;;;;;;24.75;38.79;94476.91;4971759;28;7275;-66
2023/02/28 11:07:04;;;;;;;;;;;;;;;24.75;39.11;94476.91;4983665;28;8321;-67
2023/02/28 11:09:35;;;;;;;;;;;;;;;24.75;39.05;94483.13;4959828;28;9452;-66
2023/02/28 11:12:08;;;;;;;;;;;;;;;24.77;38.47;94497.16;4990786;28;7255;-66
2023/02/28 11:14:50;;;;;;;;;;;;;;;24.80;38.85;94498.13;4966357;28;9177;-66
2023/02/28 11:17:28;;;;;;;;;;;;;;;24.80;38.16;94492.63;4966135;28;7156;-66
2023/02/28 11:20:23;;;;;;;;;;;;;;;24.79;38.25;94485.63;4974026;28;7049;-66
2023/02/28 11:22:54;;;;;;;;;;;;;;;24.76;38.38;94483.88;4995138;28;9041;-66
2023/02/28 11:25:23;;;;;;;;;;;;;;;24.79;38.65;94485.63;4984892;28;9238;-66
2023/02/28 11:27:56;;;;;;;;;;;;;;;24.77;38.10;94480.66;4973096;28;9125;-66
2023/02/28 11:30:34;;;;;;;;;;;;;;;24.77;38.30;94486.16;4975750;28;9307;-66
2023/02/28 11:33:40;;;;;;;;;;;;;;;24.77;38.54;94490.91;4969908;28;7152;-66
2023/02/28 11:36:17;;;;;;;;;;;;;;;24.76;38.11;94490.13;4996227;28;8999;-66
2023/02/28 11:39:04;;;;;;;;;;;;;;;24.76;38.65;94481.13;4984978;28;7023;-66
2023/02/28 11:42:08;;;;;;;;;;;;;;;24.77;38.92;94475.16;4992004;28;7295;-66
2023/02/28 11:45:07;;;;;;;;;;;;;;;24.78;38.41;94476.63;4987841;28;9030;-66
2023/02/28 11:48:11;;;;;;;;;;;;;;;24.77;38.63;94483.41;5003061;28;7032;-67
2023/02/28 11:50:49;;;;;;;;;;;;;;;24.78;39.14;94476.63;4987339;28;9057;-67
2023/02/28 11:53:33;;;;;;;;;;;;;;;24.78;39.23;94481.38;4982934;28;7273;-66
2023/02/28 11:56:28;;;;;;;;;;;;;;;24.78;38.96;94484.13;4992557;28;7418;-66
2023/02/28 11:59:41;;;;;;;;;;;;;;;24.79;39.04;94480.13;4973433;28;7252;-66
2023/02/28 12:03:04;;;;;;;;;;;;;;;24.80;38.89;94467.88;4961542;28;7279;-65
2023/02/28 12:05:46;;;;;;;;;;;;;;;24.77;38.50;94463.38;4936431;28;7420;-65
2023/02/28 12:08:53;;;;;;;;;;;;;;;24.77;38.97;94477.13;4944955;28;7168;-65
2023/02/28 12:11:40;;;;;;;;;;;;;;;24.77;38.81;94475.16;4925351;29;6868;-66
2023/02/28 12:14:45;;;;;;;;;;;;;;;24.76;38.67;94475.63;4914411;29;7065;-65
2023/02/28 12:17:20;;;;;;;;;;;;;;;24.80;38.57;94473.38;4887967;29;7069;-66
2023/02/28 12:19:45;;;;;;;;;;;;;;;24.85;39.06;94475.38;4906107;29;7257;-66
2023/02/28 12:22:31;;;;;;;;;;;;;;;24.83;38.80;94477.88;4909744;29;8993;-66
2023/02/28 12:25:19;;;;;;;;;;;;;;;24.79;39.32;94467.13;4931207;29;9080;-66
2023/02/28 12:28:10;;;;;;;;;;;;;;;24.79;39.01;94482.88;4902104;29;7379;-66
2023/02/28 12:31:03;;;;;;;;;;;;;;;24.78;39.26;94481.38;4931290;29;8896;-66
2023/02/28 12:33:52;;;;;;;;;;;;;;;24.79;38.72;94469.88;4924228;29;9073;-67
2023/02/28 12:36:55;;;;;;;;;;;;;;;24.82;38.61;94470.84;4937495;28;9369;-67
2023/02/28 12:39:48;;;;;;;;;;;;;;;24.80;38.57;94467.88;4948290;28;7035;-66
2023/02/28 12:42:39;;;;;;;;;;;;;;;24.81;38.19;94455.63;4932523;28;7038;-66
2023/02/28 12:45:22;;;;;;;;;;;;;;;24.82;38.29;94457.09;4949161;28;8752;-67
2023/02/28 12:47:58;;;;;;;;;;;;;;;24.82;38.77;94449.59;4949821;28;8898;-66
2023/02/28 12:50:36;;;;;;;;;;;;;;;24.82;39.17;94448.84;4929115;28;7174;-66
2023/02/28 12:53:16;;;;;;;;;;;;;;;24.82;38.37;94465.34;4934653;28;6921;-66
2023/02/28 12:55:54;;;;;;;;;;;;;;;24.82;38.30;94457.09;4943050;28;9507;-67
2023/02/28 12:58:41;;;;;;;;;;;;;;;24.81;38.64;94469.38;4945379;28;9098;-67
2023/02/28 13:01:47;;;;;;;;;;;;;;;24.87;38.89;94467.34;4936826;28;8795;-67
2023/02/28 13:04:46;;;;;;;;;;;;;;;24.91;38.41;94478.84;4952294;28;9051;-66
2023/02/28 13:07:36;;;;;;;;;;;;;;;24.92;38.24;94464.59;4953150;28;7254;-66
2023/02/28 13:10:11;;;;;;;;;;;;;;;24.91;37.42;94476.09;4928282;28;8679;-67
2023/02/28 13:12:56;;;;;;;;;;;;;;;24.87;37.90;94462.59;4953743;28;8984;-66
2023/02/28 13:15:28;;;;;;;;;;;;;;;24.85;37.87;94461.59;4979980;28;7037;-66
2023/02/28 13:17:58;;;;;;;;;;;;;;;24.86;38.45;94461.09;4992614;28;9246;-66
2023/02/28 13:20:48;;;;;;;;;;;;;;;24.86;38.32;94469.34;4970208;28;8974;-67
2023/02/28 13:23:52;;;;;;;;;;;;;;;24.84;37.80;94462.88;4990919;28;7315;-66
2023/02/28 13:26:20;;;;;;;;;;;;;;;24.82;38.37;94466.13;4972992;28;9059;-66
2023/02/28 13:28:57;;;;;;;;;;;;;;;24.84;37.92;94460.13;4972049;28;7054;-66
2023/02/28 13:31:32;;;;;;;;;;;;;;;24.83;37.96;94462.13;4965135;28;7281;-66
2023/02/28 13:34:27;;;;;;;;;;;;;;;24.82;38.68;94460.59;4955321;28;8933;-67
2023/02/28 13:37:29;;;;;;;;;;;;;;;24.82;38.27;94460.59;4978407;28;9175;-67
2023/02/28 13:39:59;;;;;;;;;;;;;;;24.82;38.33;94462.59;4970561;28;7517;-67
2023/02/28 13:42:31;;;;;;;;;;;;;;;24.81;37.87;94463.88;4993139;28;9092;-67
2023/02/28 13:45:03;;;;;;;;;;;;;;;24.84;38.69;94465.63;4977190;28;9424;-67
2023/02/28 13:47:34;;;;;;;;;;;;;;;24.83;38.54;94467.63;4962626;28;9102;-67
2023/02/28 13:50:23;;;;;;;;;;;;;;;24.82;38.48;94470.84;4968455;28;8688;-66
2023/02/28 13:53:10;;;;;;;;;;;;;;;24.82;39.11;94470.84;4962618;28;9335;-66
2023/02/28 13:55:52;;;;;;;;;;;;;;;24.81;38.68;94466.63;4985721;28;7095;-66
2023/02/28 13:58:18;;;;;;;;;;;;;;;24.81;38.32;94463.88;4965194;28;7650;-65
2023/02/28 14:00:59;;;;;;;;;;;;;;;24.83;38.96;94462.13;4969332;28;8767;-66
2023/02/28 14:03:58;;;;;;;;;;;;;;;24.82;38.48;94476.34;4974532;28;8333;-66
2023/02/28 14:06:36;;;;;;;;;;;;;;;24.80;38.78;94474.13;4963370;28;8741;-65
2023/02/28 14:09:29;;;;;;;;;;;;;;;24.81;38.61;94474.88;4964357;28;9406;-66
2023/02/28 14:11:58;;;;;;;;;;;;;;;24.81;38.42;94488.63;4972634;28;7302;-66
2023/02/28 14:14:39;;;;;;;;;;;;;;;24.83;38.69;94477.88;4971963;28;8058;-66
2023/02/28 14:17:34;;;;;;;;;;;;;;;24.83;38.07;94477.88;4979683;28;7476;-66